TimeMST,TemperatureF,Dew PointF,Humidity,Sea Level PressureIn,VisibilityMPH,Wind Direction,Wind SpeedMPH,Gust SpeedMPH,PrecipitationIn,Events,Conditions,WindDirDegrees,DateUTC
12:53 AM,32.0,24.1,73,30.19,10.0,Calm,Calm,-,N/A,,Overcast,0,2014-01-22 07:53:00
1:53 AM,32.0,24.1,73,30.19,10.0,Calm,Calm,-,N/A,,Overcast,0,2014-01-22 08:53:00
2:53 AM,32.0,24.1,73,30.19,10.0,Calm,Calm,-,N/A,,Overcast,0,2014-01-22 09:53:00
3:53 AM,30.0,23.0,75,30.19,10.0,Calm,Calm,-,N/A,,Mostly Cloudy,0,2014-01-22 10:53:00
4:53 AM,30.9,24.1,76,30.21,10.0,NW,4.6,-,N/A,,Clear,320,2014-01-22 11:53:00
5:53 AM,30.9,24.1,76,30.23,10.0,NW,8.1,-,N/A,,Clear,320,2014-01-22 12:53:00
6:53 AM,28.0,21.9,78,30.25,10.0,Calm,Calm,-,N/A,,Scattered Clouds,0,2014-01-22 13:53:00
7:49 AM,26.6,21.2,80,30.16,10.0,Calm,Calm,-,N/A,,Mostly Cloudy,0,2014-01-22 14:49:00
7:53 AM,26.1,21.9,84,30.28,10.0,Calm,Calm,-,N/A,,Mostly Cloudy,0,2014-01-22 14:53:00
8:00 AM,26.6,21.2,80,30.17,10.0,Calm,Calm,-,N/A,,Scattered Clouds,0,2014-01-22 15:00:00
8:09 AM,26.6,21.2,80,30.17,10.0,Calm,Calm,-,N/A,,Mostly Cloudy,0,2014-01-22 15:09:00
8:53 AM,28.9,23.0,78,30.29,10.0,ENE,9.2,-,N/A,,Overcast,70,2014-01-22 15:53:00
9:53 AM,28.0,21.0,75,30.32,10.0,NE,15.0,-,N/A,,Overcast,40,2014-01-22 16:53:00
10:53 AM,27.0,19.0,72,30.33,10.0,NNE,15.0,21.9,N/A,,Overcast,30,2014-01-22 17:53:00
11:53 AM,26.1,17.1,69,30.33,10.0,NNE,16.1,23.0,N/A,,Overcast,30,2014-01-22 18:53:00
12:53 PM,23.0,16.0,74,30.35,10.0,NNE,16.1,-,N/A,,Overcast,30,2014-01-22 19:53:00
1:53 PM,19.0,12.0,74,30.38,10.0,NE,16.1,-,N/A,,Overcast,50,2014-01-22 20:53:00
2:53 PM,18.0,10.0,71,30.41,10.0,NE,16.1,-,N/A,,Overcast,50,2014-01-22 21:53:00
3:53 PM,15.1,8.1,74,30.46,6.0,NE,15.0,-,0.00,Snow,Light Snow,50,2014-01-22 22:53:00
4:53 PM,14.0,7.0,74,30.49,9.0,NE,11.5,-,0.00,,Overcast,50,2014-01-22 23:53:00
5:53 PM,12.9,5.0,71,30.53,9.0,ENE,12.7,-,0.00,,Overcast,60,2014-01-23 00:53:00
6:53 PM,12.0,3.0,67,30.57,10.0,ENE,10.4,-,N/A,,Overcast,60,2014-01-23 01:53:00
7:42 PM,10.4,1.4,67,30.42,10.0,NE,9.2,-,N/A,,Overcast,40,2014-01-23 02:42:00
7:53 PM,10.9,1.9,67,30.61,10.0,NE,10.4,-,N/A,,Overcast,50,2014-01-23 02:53:00
8:53 PM,10.0,-0.9,61,30.63,10.0,NNE,11.5,-,N/A,,Overcast,30,2014-01-23 03:53:00
9:53 PM,10.0,-0.0,64,30.66,10.0,ENE,10.4,-,N/A,,Overcast,60,2014-01-23 04:53:00
10:53 PM,8.1,-0.9,67,30.70,10.0,ENE,9.2,-,N/A,,Overcast,60,2014-01-23 05:53:00
11:53 PM,8.1,-2.0,64,30.71,10.0,ENE,6.9,-,N/A,,Overcast,70,2014-01-23 06:53:00